Time;durP1;ratioP1;P1;durP2;ratioP2;P2;SDS_P1;SDS_P2;PMS_P1;PMS_P2;Temp;Humidity;BMP_temperature;BMP_pressure;BME280_temperature;BME280_humidity;BME280_pressure;Samples;Min_cycle;Max_cycle;Signal;HPM_P1;HPM_P2
2024/01/18 00:01:51;;;;;;;19.33;11.87;;;1.10;99.90;;;;;;5094545;28;20443;-79
2024/01/18 00:04:18;;;;;;;18.50;13.23;;;1.10;99.90;;;;;;5088284;28;21044;-80
2024/01/18 00:06:46;;;;;;;17.30;12.00;;;1.10;99.90;;;;;;5093371;28;20529;-81
2024/01/18 00:09:13;;;;;;;17.47;12.47;;;1.20;99.90;;;;;;5091968;28;20550;-80
2024/01/18 00:11:39;;;;;;;16.10;11.93;;;1.10;99.90;;;;;;5081393;28;20458;-79
2024/01/18 00:14:06;;;;;;;24.47;12.10;;;1.10;99.90;;;;;;5095447;28;20457;-79
2024/01/18 00:16:34;;;;;;;21.93;11.73;;;1.10;99.90;;;;;;5087550;28;20501;-81
2024/01/18 00:19:01;;;;;;;19.63;11.53;;;1.20;99.90;;;;;;5085566;28;20886;-79
2024/01/18 00:21:28;;;;;;;19.50;12.50;;;1.20;99.90;;;;;;5091570;28;20474;-80
2024/01/18 00:23:56;;;;;;;19.73;12.33;;;1.10;99.90;;;;;;5095193;28;20429;-80
2024/01/18 00:26:23;;;;;;;22.10;13.87;;;1.10;99.90;;;;;;5093203;28;20550;-81
2024/01/18 00:28:50;;;;;;;17.43;13.50;;;1.20;99.90;;;;;;5094267;28;20454;-80
2024/01/18 00:31:16;;;;;;;17.47;12.60;;;1.10;99.90;;;;;;5093961;28;20460;-80
2024/01/18 00:33:43;;;;;;;18.67;12.67;;;1.10;99.90;;;;;;5093546;28;20454;-81
2024/01/18 00:36:10;;;;;;;19.53;12.73;;;1.10;99.90;;;;;;5094446;28;20965;-79
2024/01/18 00:38:37;;;;;;;19.50;12.67;;;1.10;99.90;;;;;;5094721;28;20953;-81
2024/01/18 00:41:06;;;;;;;21.20;13.97;;;1.10;99.90;;;;;;5089993;28;20462;-80
2024/01/18 00:43:32;;;;;;;18.20;13.30;;;1.10;99.90;;;;;;5089721;28;20494;-80
2024/01/18 00:46:04;;;;;;;19.60;11.80;;;1.10;99.90;;;;;;5093402;28;20493;-77
2024/01/18 00:48:30;;;;;;;26.50;14.27;;;1.10;99.90;;;;;;5094752;28;20464;-80
2024/01/18 00:50:58;;;;;;;19.77;12.50;;;1.10;99.90;;;;;;5091364;28;20967;-80
2024/01/18 00:53:25;;;;;;;20.50;13.60;;;1.10;99.90;;;;;;5092369;28;20982;-80
2024/01/18 00:55:54;;;;;;;17.77;12.37;;;1.00;99.90;;;;;;5089519;28;20466;-78
2024/01/18 00:58:22;;;;;;;20.67;14.10;;;1.00;99.90;;;;;;5092329;28;20545;-80
2024/01/18 01:00:49;;;;;;;15.03;11.30;;;1.00;99.90;;;;;;5092798;28;20450;-80
2024/01/18 01:03:16;;;;;;;18.97;13.80;;;1.00;99.90;;;;;;5088977;28;20454;-81
2024/01/18 01:05:43;;;;;;;19.50;11.97;;;1.00;99.90;;;;;;5086426;28;20491;-81
2024/01/18 01:08:10;;;;;;;20.00;13.13;;;1.00;99.90;;;;;;5089288;28;20457;-80
2024/01/18 01:10:36;;;;;;;19.27;13.47;;;1.00;99.90;;;;;;5093859;28;20454;-80
2024/01/18 01:13:04;;;;;;;17.80;13.27;;;1.00;99.90;;;;;;5095327;28;20491;-81
2024/01/18 01:15:32;;;;;;;18.80;12.77;;;1.00;99.90;;;;;;5095027;28;20462;-81
2024/01/18 01:17:59;;;;;;;19.03;12.70;;;1.00;99.90;;;;;;5092755;28;20808;-80
2024/01/18 01:20:25;;;;;;;20.13;13.83;;;1.00;99.90;;;;;;5087551;28;20454;-79
2024/01/18 01:22:52;;;;;;;21.33;13.87;;;1.00;99.90;;;;;;5087259;28;20594;-80
2024/01/18 01:25:19;;;;;;;19.77;13.40;;;0.90;99.90;;;;;;5095110;28;20491;-80
2024/01/18 01:27:46;;;;;;;20.57;14.80;;;0.90;99.90;;;;;;5092317;28;20458;-80
2024/01/18 01:30:13;;;;;;;21.23;13.37;;;0.90;99.90;;;;;;5095241;28;20494;-80
2024/01/18 01:32:41;;;;;;;16.40;12.77;;;0.80;99.90;;;;;;5095443;28;20540;-80
2024/01/18 01:35:08;;;;;;;19.80;14.20;;;0.80;99.90;;;;;;5090018;28;20446;-79
2024/01/18 01:37:35;;;;;;;24.90;13.87;;;0.80;99.90;;;;;;5097606;28;20453;-80
2024/01/18 01:40:04;;;;;;;24.60;15.07;;;0.80;99.90;;;;;;5095993;28;20549;-80
2024/01/18 01:42:31;;;;;;;23.90;15.60;;;0.80;99.90;;;;;;5094008;28;20545;-80
2024/01/18 01:44:58;;;;;;;27.50;16.07;;;0.90;99.90;;;;;;5097999;28;20504;-80
2024/01/18 01:47:25;;;;;;;27.77;15.80;;;0.80;99.90;;;;;;5083978;28;20990;-80
2024/01/18 01:49:53;;;;;;;21.70;14.07;;;0.80;99.90;;;;;;5095682;28;20432;-80
2024/01/18 01:52:23;;;;;;;25.03;14.87;;;0.80;99.90;;;;;;5082907;28;20973;-80
2024/01/18 01:54:50;;;;;;;23.23;14.70;;;0.80;99.90;;;;;;5091736;28;20469;-82
2024/01/18 01:57:18;;;;;;;23.77;14.23;;;0.80;99.90;;;;;;5093559;28;20481;-81
2024/01/18 01:59:45;;;;;;;26.03;15.33;;;0.80;99.90;;;;;;5095495;28;20816;-80
2024/01/18 02:02:13;;;;;;;25.00;15.67;;;0.80;99.90;;;;;;5095866;28;20520;-81
2024/01/18 02:04:40;;;;;;;27.13;14.97;;;0.80;99.90;;;;;;5096261;28;20429;-80
2024/01/18 02:07:10;;;;;;;18.27;13.47;;;0.80;99.90;;;;;;5097910;28;20461;-81
2024/01/18 02:09:38;;;;;;;25.20;16.10;;;0.80;99.90;;;;;;5110125;28;20440;-80
2024/01/18 02:12:09;;;;;;;22.57;15.93;;;0.80;99.90;;;;;;5104879;28;20454;-81
2024/01/18 02:14:36;;;;;;;20.70;13.80;;;0.90;99.90;;;;;;5100479;28;20522;-79
2024/01/18 02:17:04;;;;;;;22.07;15.20;;;0.90;99.90;;;;;;5106345;28;20537;-82
2024/01/18 02:19:31;;;;;;;26.50;14.90;;;0.90;99.90;;;;;;5112440;28;20457;-82
2024/01/18 02:21:59;;;;;;;22.63;15.37;;;0.90;99.90;;;;;;5101818;28;20479;-81
2024/01/18 02:24:33;;;;;;;23.37;14.33;;;0.90;99.90;;;;;;5103664;28;20450;-81
2024/01/18 02:27:01;;;;;;;26.93;15.07;;;0.90;99.90;;;;;;5104345;28;20492;-80
2024/01/18 02:29:28;;;;;;;25.10;15.70;;;0.90;99.90;;;;;;5104180;28;20452;-82
2024/01/18 02:31:56;;;;;;;19.07;13.97;;;0.90;99.90;;;;;;5101380;28;20542;-81
2024/01/18 02:34:23;;;;;;;19.50;14.20;;;0.90;99.90;;;;;;5096358;28;20487;-80
2024/01/18 02:36:50;;;;;;;22.73;14.90;;;0.90;99.90;;;;;;5102212;28;20541;-82
2024/01/18 02:39:17;;;;;;;17.67;13.47;;;0.90;99.90;;;;;;5103949;28;20512;-81
2024/01/18 02:41:44;;;;;;;19.43;14.33;;;0.90;99.90;;;;;;5100337;28;20446;-80
2024/01/18 02:44:12;;;;;;;26.27;15.53;;;0.80;99.90;;;;;;5092117;28;20497;-80
2024/01/18 02:46:39;;;;;;;19.53;14.23;;;0.80;99.90;;;;;;5094395;28;20514;-81
2024/01/18 02:49:06;;;;;;;21.20;13.23;;;0.90;99.90;;;;;;5099298;28;20458;-82
2024/01/18 02:51:33;;;;;;;18.05;14.82;;;0.80;99.90;;;;;;5092141;28;20527;-79
2024/01/18 02:54:00;;;;;;;20.27;15.07;;;0.80;99.90;;;;;;5088692;28;20212;-78
2024/01/18 02:56:28;;;;;;;19.77;14.00;;;0.80;99.90;;;;;;5094220;28;20582;-80
2024/01/18 02:58:55;;;;;;;20.53;14.80;;;0.90;99.90;;;;;;5091960;28;20439;-80
2024/01/18 03:01:23;;;;;;;24.47;14.63;;;0.90;99.90;;;;;;5093624;28;20537;-80
2024/01/18 03:03:50;;;;;;;22.73;14.50;;;0.90;99.90;;;;;;5096665;28;20443;-80
2024/01/18 03:06:17;;;;;;;20.33;14.10;;;0.90;99.90;;;;;;5092310;28;20493;-79
2024/01/18 03:08:44;;;;;;;21.10;14.10;;;0.90;99.90;;;;;;5100466;28;20435;-81
2024/01/18 03:11:10;;;;;;;21.67;15.10;;;0.90;99.90;;;;;;5096262;28;20518;-80
2024/01/18 03:13:38;;;;;;;22.80;14.30;;;0.80;99.90;;;;;;5103184;28;20450;-81
2024/01/18 03:16:04;;;;;;;22.97;16.50;;;0.80;99.90;;;;;;5098330;28;20538;-80
2024/01/18 03:18:35;;;;;;;23.00;14.80;;;0.80;99.90;;;;;;5092476;28;20884;-82
2024/01/18 03:21:05;;;;;;;23.47;14.63;;;0.80;99.90;;;;;;5102136;28;20432;-81
2024/01/18 03:23:32;;;;;;;22.87;14.60;;;0.80;99.90;;;;;;5102458;28;20454;-81
2024/01/18 03:25:58;;;;;;;20.43;14.90;;;0.80;99.90;;;;;;5092095;28;20460;-80
2024/01/18 03:28:26;;;;;;;19.67;14.47;;;0.80;99.90;;;;;;5096958;28;20545;-81
2024/01/18 03:30:53;;;;;;;20.70;13.07;;;0.80;99.90;;;;;;5101479;28;20466;-81
2024/01/18 03:33:20;;;;;;;22.03;15.27;;;0.80;99.90;;;;;;5090715;28;20451;-80
2024/01/18 03:35:48;;;;;;;21.60;14.30;;;0.70;99.90;;;;;;5099095;28;20481;-78
2024/01/18 03:38:15;;;;;;;20.27;15.60;;;0.70;99.90;;;;;;5094892;28;20450;-82
2024/01/18 03:40:42;;;;;;;25.10;17.00;;;0.70;99.90;;;;;;5094952;28;20536;-81
2024/01/18 03:43:12;;;;;;;18.43;13.90;;;0.70;99.90;;;;;;5093801;28;21065;-80
2024/01/18 03:45:39;;;;;;;23.67;16.10;;;0.70;99.90;;;;;;5095125;28;20593;-81
2024/01/18 03:48:06;;;;;;;22.20;14.30;;;0.70;99.90;;;;;;5098043;28;20455;-80
2024/01/18 03:50:33;;;;;;;19.87;14.40;;;0.70;99.90;;;;;;5098713;28;20492;-82
2024/01/18 03:53:01;;;;;;;19.60;15.47;;;0.80;99.90;;;;;;5086675;28;20546;-82
2024/01/18 03:55:28;;;;;;;20.87;14.80;;;0.80;99.90;;;;;;5094911;28;20474;-81
2024/01/18 03:57:55;;;;;;;22.70;14.00;;;0.80;99.90;;;;;;5094231;28;20500;-82
2024/01/18 04:00:21;;;;;;;21.43;14.60;;;0.80;99.90;;;;;;5091911;28;20430;-82
2024/01/18 04:02:48;;;;;;;24.83;16.10;;;0.80;99.90;;;;;;5098776;28;20549;-80
2024/01/18 04:05:15;;;;;;;27.10;17.23;;;0.80;99.90;;;;;;5093764;28;20460;-80
2024/01/18 04:07:42;;;;;;;22.90;15.30;;;0.80;99.90;;;;;;5099571;28;20452;-81
2024/01/18 04:10:11;;;;;;;22.77;14.20;;;0.80;99.90;;;;;;5099816;28;20447;-81
2024/01/18 04:12:38;;;;;;;20.98;15.98;;;0.80;99.90;;;;;;5099734;28;20450;-81
2024/01/18 04:15:07;;;;;;;19.97;13.80;;;0.80;99.90;;;;;;5087568;28;20272;-81
2024/01/18 04:17:34;;;;;;;21.17;14.50;;;0.90;99.90;;;;;;5095826;28;20482;-81
2024/01/18 04:20:05;;;;;;;22.73;14.80;;;0.90;99.90;;;;;;5103250;28;20454;-80
2024/01/18 04:22:32;;;;;;;20.97;14.80;;;0.90;99.90;;;;;;5092067;28;20461;-82
2024/01/18 04:24:58;;;;;;;23.73;14.83;;;0.90;99.90;;;;;;5100493;28;20473;-80
2024/01/18 04:27:27;;;;;;;22.63;16.33;;;1.00;99.90;;;;;;5099049;28;20491;-82
2024/01/18 04:29:54;;;;;;;24.97;16.60;;;1.00;99.90;;;;;;5098979;28;20465;-82
2024/01/18 04:32:21;;;;;;;23.42;15.30;;;1.00;99.90;;;;;;5107011;28;20445;-81
2024/01/18 04:34:48;;;;;;;27.10;16.63;;;1.00;99.90;;;;;;5110765;28;20272;-80
2024/01/18 04:37:14;;;;;;;25.10;17.83;;;1.00;99.90;;;;;;5099627;28;20470;-80
2024/01/18 04:39:41;;;;;;;20.90;15.03;;;0.80;99.90;;;;;;5097712;28;20450;-82
2024/01/18 04:42:09;;;;;;;23.23;16.23;;;0.90;99.90;;;;;;5086981;28;20434;-82
2024/01/18 04:44:38;;;;;;;24.23;15.50;;;0.90;99.90;;;;;;5080108;28;20450;-80
2024/01/18 04:47:06;;;;;;;24.03;15.67;;;0.90;99.90;;;;;;5086896;28;20920;-81
2024/01/18 04:49:33;;;;;;;22.93;16.53;;;1.00;99.90;;;;;;5098457;28;20545;-81
2024/01/18 04:52:00;;;;;;;22.00;16.13;;;1.00;99.90;;;;;;5094329;28;20518;-80
2024/01/18 04:54:27;;;;;;;31.17;16.87;;;0.90;99.90;;;;;;5097759;28;20528;-79
2024/01/18 04:56:54;;;;;;;40.63;21.33;;;1.00;99.90;;;;;;5101252;28;20522;-80
2024/01/18 04:59:21;;;;;;;35.20;20.50;;;1.00;99.90;;;;;;5082526;28;20469;-80
2024/01/18 05:01:49;;;;;;;22.13;16.17;;;0.90;99.90;;;;;;5091167;28;20545;-80
2024/01/18 05:04:18;;;;;;;26.30;18.00;;;0.90;99.90;;;;;;5097145;28;20451;-79
2024/01/18 05:06:45;;;;;;;25.13;18.30;;;0.90;99.90;;;;;;5086103;28;20987;-80
2024/01/18 05:09:16;;;;;;;28.13;17.10;;;0.80;99.90;;;;;;5091126;28;20482;-81
2024/01/18 05:11:43;;;;;;;27.40;15.93;;;0.80;99.90;;;;;;5097638;28;20469;-80
2024/01/18 05:14:10;;;;;;;24.80;16.40;;;0.80;99.90;;;;;;5100775;28;20890;-79
2024/01/18 05:16:39;;;;;;;28.77;17.63;;;0.80;99.90;;;;;;5101056;28;20526;-80
2024/01/18 05:19:08;;;;;;;24.03;16.13;;;0.70;99.90;;;;;;5100400;28;20462;-80
2024/01/18 05:21:35;;;;;;;25.00;17.07;;;0.70;99.90;;;;;;5098222;28;20466;-81
2024/01/18 05:24:02;;;;;;;22.10;16.03;;;0.60;99.90;;;;;;5095497;28;20450;-81
2024/01/18 05:26:29;;;;;;;21.48;16.75;;;0.50;99.90;;;;;;5088796;28;20573;-82
2024/01/18 05:28:56;;;;;;;25.47;16.40;;;0.50;99.90;;;;;;5104095;28;20242;-83
2024/01/18 05:31:22;;;;;;;23.60;16.70;;;0.40;99.90;;;;;;5104346;28;20457;-80
2024/01/18 05:33:50;;;;;;;24.73;15.90;;;0.40;99.90;;;;;;5095300;28;20435;-82
2024/01/18 05:36:18;;;;;;;27.37;15.97;;;0.40;99.90;;;;;;5096465;28;20475;-80
2024/01/18 05:38:44;;;;;;;27.15;15.98;;;0.40;99.90;;;;;;5099989;28;20470;-81
2024/01/18 05:41:11;;;;;;;21.17;15.60;;;0.40;99.90;;;;;;5099708;28;20745;-80
2024/01/18 05:43:38;;;;;;;26.95;17.73;;;0.40;99.90;;;;;;5098815;28;20814;-80
2024/01/18 05:46:08;;;;;;;23.20;15.73;;;0.40;99.90;;;;;;5085214;28;20245;-80
2024/01/18 05:48:35;;;;;;;24.70;15.23;;;0.30;99.90;;;;;;5095596;28;20945;-79
2024/01/18 05:51:02;;;;;;;22.08;15.68;;;0.20;99.90;;;;;;5089484;28;20210;-81
2024/01/18 05:53:33;;;;;;;27.83;15.05;;;0.20;99.90;;;;;;5092617;28;20225;-85
2024/01/18 05:56:00;;;;;;;21.90;15.63;;;0.20;99.90;;;;;;5100514;28;20312;-79
2024/01/18 05:58:30;;;;;;;25.17;17.25;;;0.10;99.90;;;;;;5098523;28;20460;-80
2024/01/18 06:00:57;;;;;;;25.07;16.40;;;0.10;99.90;;;;;;5093297;28;20212;-80
2024/01/18 06:03:23;;;;;;;26.20;17.27;;;0.10;99.90;;;;;;5098046;28;20839;-78
2024/01/18 06:05:50;;;;;;;24.10;17.27;;;0.10;99.90;;;;;;5098215;28;20223;-81
2024/01/18 06:08:17;;;;;;;20.97;16.33;;;0.10;99.90;;;;;;5095462;28;20211;-80
2024/01/18 06:10:47;;;;;;;30.00;17.67;;;0.10;99.90;;;;;;5097942;28;20425;-80
2024/01/18 06:13:14;;;;;;;24.40;16.23;;;0.10;99.90;;;;;;5090792;28;20453;-79
2024/01/18 06:15:40;;;;;;;24.50;17.50;;;0.10;99.90;;;;;;5097758;28;20947;-80
2024/01/18 06:18:07;;;;;;;28.37;17.90;;;0.10;99.90;;;;;;5087029;28;20449;-80
2024/01/18 06:20:34;;;;;;;24.70;15.27;;;0.10;99.90;;;;;;5098238;28;20439;-80
2024/01/18 06:23:01;;;;;;;22.80;16.92;;;0.10;99.90;;;;;;5097851;28;20512;-82
2024/01/18 06:25:28;;;;;;;30.43;17.80;;;0.10;99.90;;;;;;5097991;28;20214;-82
2024/01/18 06:27:56;;;;;;;24.47;17.80;;;0.10;99.90;;;;;;5096329;28;20529;-81
2024/01/18 06:30:24;;;;;;;25.30;18.23;;;0.10;99.90;;;;;;5089826;28;20442;-80
2024/01/18 06:32:51;;;;;;;24.97;16.30;;;0.10;99.90;;;;;;5089824;28;20427;-82
2024/01/18 06:35:17;;;;;;;27.35;17.67;;;0.10;99.90;;;;;;5091635;28;20461;-83
2024/01/18 06:37:44;;;;;;;24.07;16.00;;;0.00;99.90;;;;;;5097182;28;20294;-83
2024/01/18 06:40:13;;;;;;;24.85;17.13;;;0.10;99.90;;;;;;5089362;28;20452;-81
2024/01/18 06:42:40;;;;;;;23.13;16.47;;;-0.10;99.90;;;;;;5095456;28;20573;-83
2024/01/18 06:45:11;;;;;;;22.40;15.80;;;-0.20;99.90;;;;;;5089471;28;20447;-82
2024/01/18 06:47:38;;;;;;;21.03;15.90;;;-0.20;99.90;;;;;;5095413;28;20585;-81
2024/01/18 06:50:05;;;;;;;26.13;17.80;;;-0.30;99.90;;;;;;5094824;28;20979;-82
2024/01/18 06:52:32;;;;;;;24.15;17.58;;;-0.40;99.90;;;;;;5086598;28;20461;-83
2024/01/18 06:54:59;;;;;;;24.20;17.33;;;-0.50;99.90;;;;;;5086511;28;20302;-82
2024/01/18 06:57:26;;;;;;;21.80;16.55;;;-0.60;99.90;;;;;;5090985;28;20995;-84
2024/01/18 06:59:56;;;;;;;22.23;14.10;;;-0.70;99.90;;;;;;5091943;28;20217;-84
2024/01/18 07:02:29;;;;;;;23.63;16.73;;;-0.80;99.90;;;;;;5083807;28;20588;-82
2024/01/18 07:04:56;;;;;;;23.48;16.42;;;-0.80;99.90;;;;;;5085631;28;20647;-84
2024/01/18 07:07:25;;;;;;;21.05;14.93;;;-0.90;99.90;;;;;;5090491;28;20234;-82
2024/01/18 07:09:52;;;;;;;25.70;17.42;;;-1.00;99.90;;;;;;5084733;28;20206;-82
2024/01/18 07:12:19;;;;;;;24.80;16.33;;;-1.20;99.90;;;;;;5088508;28;20218;-82
2024/01/18 07:14:45;;;;;;;24.27;16.98;;;-1.20;99.90;;;;;;5085773;28;20581;-82
2024/01/18 07:17:12;;;;;;;26.45;18.25;;;-1.30;99.90;;;;;;5087955;28;20232;-83
2024/01/18 07:19:41;;;;;;;26.67;18.10;;;-1.30;99.90;;;;;;5086721;28;20202;-83
2024/01/18 07:22:08;;;;;;;24.42;16.55;;;-1.40;99.90;;;;;;5090002;28;20674;-82
2024/01/18 07:24:35;;;;;;;20.92;16.75;;;-1.40;99.90;;;;;;5087248;28;20281;-81
2024/01/18 07:27:09;;;;;;;25.85;17.70;;;-1.40;99.90;;;;;;5088941;28;20229;-84
2024/01/18 07:29:38;;;;;;;25.63;16.83;;;-1.50;99.90;;;;;;5087179;28;20218;-82
2024/01/18 07:32:05;;;;;;;25.83;17.08;;;-1.50;99.90;;;;;;5086989;28;20231;-83
2024/01/18 07:34:34;;;;;;;24.65;17.25;;;-1.60;99.90;;;;;;5085889;28;20290;-84
2024/01/18 07:37:05;;;;;;;24.48;17.30;;;-1.60;99.90;;;;;;5085246;28;20333;-80
2024/01/18 07:39:31;;;;;;;26.48;18.42;;;-1.70;99.90;;;;;;5085908;28;20211;-82
2024/01/18 07:42:00;;;;;;;31.50;18.35;;;-1.70;99.90;;;;;;5089009;28;20664;-81
2024/01/18 07:44:27;;;;;;;26.77;18.42;;;-1.70;99.90;;;;;;5088081;28;20287;-81
2024/01/18 07:46:54;;;;;;;27.73;17.92;;;-1.70;99.90;;;;;;5083884;28;20228;-82
2024/01/18 07:49:21;;;;;;;25.38;17.23;;;-1.70;99.90;;;;;;5087625;28;20227;-83
2024/01/18 07:51:50;;;;;;;29.90;18.55;;;-1.70;99.90;;;;;;5082963;28;20210;-82
2024/01/18 07:54:18;;;;;;;29.75;19.30;;;-1.70;99.90;;;;;;5082234;28;20203;-82
2024/01/18 07:56:45;;;;;;;27.10;18.35;;;-1.70;99.90;;;;;;5089240;28;20214;-83
2024/01/18 07:59:12;;;;;;;24.95;18.23;;;-1.70;99.90;;;;;;5093305;28;20205;-82
2024/01/18 08:01:40;;;;;;;24.10;18.98;;;-1.70;99.90;;;;;;5086995;28;20201;-85
2024/01/18 08:04:06;;;;;;;27.92;18.58;;;-1.80;99.90;;;;;;5091106;28;20240;-83
2024/01/18 08:06:33;;;;;;;28.95;18.05;;;-1.80;99.90;;;;;;5091031;28;20222;-83
2024/01/18 08:09:00;;;;;;;24.83;18.58;;;-1.80;99.90;;;;;;5084919;28;20678;-83
2024/01/18 08:11:28;;;;;;;26.65;18.00;;;-1.80;99.90;;;;;;5091385;28;20292;-83
2024/01/18 08:13:55;;;;;;;29.92;19.40;;;-1.80;99.90;;;;;;5088322;28;20202;-83
2024/01/18 08:16:22;;;;;;;29.00;16.77;;;-1.90;99.90;;;;;;5093778;28;20238;-83
2024/01/18 08:18:49;;;;;;;25.50;17.67;;;-1.90;99.90;;;;;;5092021;28;20252;-84
2024/01/18 08:21:16;;;;;;;31.02;19.17;;;-1.90;99.90;;;;;;5094647;28;20202;-81
2024/01/18 08:23:43;;;;;;;25.05;17.92;;;-1.90;99.90;;;;;;5093950;28;20269;-82
2024/01/18 08:26:10;;;;;;;29.95;18.35;;;-1.90;99.90;;;;;;5097640;28;20703;-82
2024/01/18 08:28:39;;;;;;;23.33;17.25;;;-1.90;99.90;;;;;;5091122;28;20230;-81
2024/01/18 08:31:06;;;;;;;24.30;17.98;;;-1.80;99.90;;;;;;5103121;28;20217;-83
2024/01/18 08:33:33;;;;;;;26.95;20.60;;;-1.80;99.90;;;;;;5099642;28;20206;-81
2024/01/18 08:36:00;;;;;;;32.17;21.67;;;-1.80;99.90;;;;;;5100622;28;20606;-82
2024/01/18 08:38:27;;;;;;;23.83;16.80;;;-1.70;99.90;;;;;;5101660;28;20657;-85
2024/01/18 08:40:54;;;;;;;35.50;19.40;;;-1.60;99.90;;;;;;5094386;28;20273;-82
2024/01/18 08:43:26;;;;;;;28.40;19.13;;;-1.60;99.90;;;;;;5098686;28;20231;-82
2024/01/18 08:45:54;;;;;;;24.58;17.75;;;-1.60;99.90;;;;;;5088928;28;20258;-81
2024/01/18 08:48:21;;;;;;;30.65;19.55;;;-1.40;99.90;;;;;;5090115;28;20728;-84
2024/01/18 08:50:48;;;;;;;26.92;18.95;;;-1.40;99.90;;;;;;5098458;28;20212;-82
2024/01/18 08:53:15;;;;;;;28.95;20.52;;;-1.30;99.90;;;;;;5097983;28;20205;-82
2024/01/18 08:55:42;;;;;;;33.25;19.55;;;-1.30;99.90;;;;;;5084083;28;20295;-81
2024/01/18 08:58:09;;;;;;;29.83;19.27;;;-1.30;99.90;;;;;;5101126;28;20296;-82
2024/01/18 09:00:36;;;;;;;30.02;18.77;;;-1.20;99.90;;;;;;5095737;28;20213;-82
2024/01/18 09:03:04;;;;;;;31.83;19.65;;;-1.10;99.90;;;;;;5091311;28;20206;-84
2024/01/18 09:05:31;;;;;;;30.70;20.27;;;-1.10;99.90;;;;;;5094118;28;20238;-84
2024/01/18 09:08:00;;;;;;;24.65;20.17;;;-1.00;99.90;;;;;;5099225;28;20313;-83
2024/01/18 09:10:27;;;;;;;27.73;19.70;;;-1.00;99.90;;;;;;5093726;28;20202;-83
2024/01/18 09:12:55;;;;;;;31.77;19.10;;;-0.90;99.90;;;;;;5092917;28;20202;-84
2024/01/18 09:15:23;;;;;;;32.78;20.15;;;-0.80;99.90;;;;;;5098553;28;20221;-85
2024/01/18 09:17:49;;;;;;;31.38;20.30;;;-0.80;99.90;;;;;;5091458;28;20622;-85
2024/01/18 09:20:18;;;;;;;30.13;22.65;;;-0.70;99.90;;;;;;5100517;28;20273;-85
2024/01/18 09:22:45;;;;;;;32.75;21.83;;;-0.60;99.90;;;;;;5097348;28;20200;-86
2024/01/18 09:25:11;;;;;;;29.20;21.45;;;-0.50;99.90;;;;;;5100287;28;20303;-84
2024/01/18 09:27:38;;;;;;;31.80;21.15;;;-0.50;99.90;;;;;;5099869;28;20300;-84
2024/01/18 09:30:08;;;;;;;32.00;21.35;;;-0.40;99.90;;;;;;5103638;28;20566;-84
2024/01/18 09:32:35;;;;;;;33.25;22.65;;;-0.40;99.90;;;;;;5098965;28;20207;-84
2024/01/18 09:35:05;;;;;;;30.80;22.05;;;-0.30;99.90;;;;;;5094843;28;20199;-83
2024/01/18 09:37:33;;;;;;;31.70;22.30;;;-0.20;99.90;;;;;;5097155;28;20219;-83
2024/01/18 09:40:00;;;;;;;34.90;21.85;;;-0.20;99.90;;;;;;5103187;28;20268;-82
2024/01/18 09:42:32;;;;;;;31.33;21.90;;;0.00;99.90;;;;;;5095966;28;20754;-84
2024/01/18 09:45:07;;;;;;;36.08;23.90;;;0.00;99.90;;;;;;5103618;28;20537;-83
2024/01/18 09:47:34;;;;;;;29.10;20.80;;;0.00;99.90;;;;;;5103736;28;20709;-83
2024/01/18 09:50:01;;;;;;;27.98;19.52;;;0.10;99.90;;;;;;5098955;28;20520;-84
2024/01/18 09:52:28;;;;;;;27.70;19.77;;;0.20;99.90;;;;;;5097903;28;20225;-84
2024/01/18 09:54:57;;;;;;;26.08;20.17;;;0.20;99.90;;;;;;5104392;28;20463;-84
2024/01/18 09:57:32;;;;;;;26.38;19.65;;;0.30;99.90;;;;;;5106223;28;20224;-85
2024/01/18 10:00:01;;;;;;;28.53;20.27;;;0.40;99.90;;;;;;5108795;28;20207;-83
2024/01/18 10:02:28;;;;;;;29.50;20.97;;;0.40;99.90;;;;;;5107021;28;20457;-83
2024/01/18 10:05:00;;;;;;;27.50;19.80;;;0.50;99.90;;;;;;5100682;28;20485;-88
2024/01/18 10:07:27;;;;;;;26.43;19.13;;;0.50;99.90;;;;;;5095918;28;20551;-83
2024/01/18 10:09:54;;;;;;;33.83;19.60;;;0.60;99.90;;;;;;5097494;28;20475;-82
2024/01/18 10:12:22;;;;;;;25.15;18.00;;;0.60;99.90;;;;;;5095927;28;20450;-85
2024/01/18 10:14:49;;;;;;;23.67;17.77;;;0.70;99.90;;;;;;5094541;28;20201;-85
2024/01/18 10:17:21;;;;;;;26.00;18.03;;;0.70;99.90;;;;;;5099845;28;20436;-85
2024/01/18 10:19:51;;;;;;;25.13;17.90;;;0.80;99.90;;;;;;5098645;28;20437;-82
2024/01/18 10:22:19;;;;;;;24.17;18.83;;;0.80;99.90;;;;;;5099855;28;20936;-85
2024/01/18 10:24:45;;;;;;;29.00;20.47;;;0.80;99.90;;;;;;5098443;28;20521;-83
2024/01/18 10:27:12;;;;;;;21.30;17.40;;;0.90;99.90;;;;;;5099632;28;20470;-85
2024/01/18 10:29:41;;;;;;;26.13;19.73;;;1.00;99.90;;;;;;5101128;28;20991;-84
2024/01/18 10:32:08;;;;;;;28.70;19.70;;;1.10;99.90;;;;;;5091868;28;20878;-84
2024/01/18 10:34:36;;;;;;;25.60;17.73;;;1.20;99.90;;;;;;5090763;28;20961;-81
2024/01/18 10:37:04;;;;;;;26.13;18.60;;;1.20;99.90;;;;;;5096674;28;20514;-85
2024/01/18 10:39:39;;;;;;;24.47;17.67;;;1.30;99.90;;;;;;5090917;28;20427;-83
2024/01/18 10:42:10;;;;;;;29.83;16.40;;;1.30;99.90;;;;;;5085883;28;20459;-83
2024/01/18 10:44:42;;;;;;;23.13;17.80;;;1.40;99.90;;;;;;5087283;28;20541;-83
2024/01/18 10:47:11;;;;;;;26.65;17.20;;;1.60;99.90;;;;;;5092745;28;20481;-81
2024/01/18 10:49:38;;;;;;;29.27;17.97;;;1.60;99.90;;;;;;5096431;28;20237;-84
2024/01/18 10:52:22;;;;;;;20.37;16.37;;;1.70;99.90;;;;;;5078558;28;20462;-83
2024/01/18 10:54:50;;;;;;;20.83;14.53;;;1.70;99.90;;;;;;5096879;28;20462;-83
2024/01/18 10:57:17;;;;;;;18.23;14.47;;;1.80;99.90;;;;;;5094445;28;20510;-83
2024/01/18 10:59:45;;;;;;;19.37;13.80;;;1.90;99.90;;;;;;5089601;28;20897;-84
2024/01/18 11:02:12;;;;;;;24.33;16.17;;;2.00;99.90;;;;;;5084404;28;20537;-85
2024/01/18 11:04:39;;;;;;;16.90;12.53;;;2.00;99.90;;;;;;5087189;28;20448;-82
2024/01/18 11:07:06;;;;;;;17.70;12.43;;;2.20;99.90;;;;;;5095177;28;20475;-82
2024/01/18 11:09:36;;;;;;;14.97;11.00;;;2.30;99.90;;;;;;5089288;28;20521;-82
2024/01/18 11:12:04;;;;;;;13.57;10.67;;;2.40;99.90;;;;;;5108650;28;20514;-82
2024/01/18 11:14:32;;;;;;;14.23;10.10;;;2.50;99.90;;;;;;5114079;28;20451;-84
2024/01/18 11:17:11;;;;;;;11.30;9.10;;;2.60;99.90;;;;;;5113508;28;20493;-82
2024/01/18 11:19:42;;;;;;;19.30;9.33;;;2.80;99.90;;;;;;5083391;28;20538;-84
2024/01/18 11:22:11;;;;;;;13.17;8.70;;;3.00;99.90;;;;;;5097443;28;20454;-82
2024/01/18 11:24:38;;;;;;;11.97;9.60;;;3.20;99.90;;;;;;5097506;28;20459;-82
2024/01/18 11:27:21;;;;;;;12.03;8.23;;;3.40;99.90;;;;;;5092506;28;20485;-83
2024/01/18 11:29:49;;;;;;;13.03;8.90;;;3.80;99.90;;;;;;5089530;28;20464;-83
2024/01/18 11:32:19;;;;;;;12.17;8.77;;;4.50;99.90;;;;;;5094985;28;20451;-83
2024/01/18 11:34:47;;;;;;;13.40;9.10;;;5.50;99.90;;;;;;5095447;28;20538;-83
2024/01/18 11:37:15;;;;;;;11.80;6.73;;;6.70;99.90;;;;;;5090265;28;20564;-82
2024/01/18 11:39:54;;;;;;;9.07;6.20;;;8.60;99.90;;;;;;5100024;28;20873;-83
2024/01/18 11:42:23;;;;;;;9.30;5.30;;;10.80;99.90;;;;;;5088895;28;20459;-81
2024/01/18 11:44:51;;;;;;;7.30;5.10;;;13.00;99.40;;;;;;5086950;28;20480;-82
2024/01/18 11:47:19;;;;;;;6.10;4.80;;;15.10;93.40;;;;;;5095851;28;20472;-81
2024/01/18 11:49:47;;;;;;;5.40;3.70;;;16.80;86.80;;;;;;5090077;28;20491;-82
2024/01/18 11:52:14;;;;;;;5.70;3.93;;;18.60;78.90;;;;;;5092165;28;20459;-82
2024/01/18 11:54:44;;;;;;;4.63;3.63;;;18.30;71.60;;;;;;5096849;28;20453;-82
2024/01/18 11:57:14;;;;;;;5.30;4.00;;;19.10;67.20;;;;;;5096573;28;20473;-82
2024/01/18 11:59:42;;;;;;;4.47;3.53;;;18.60;66.40;;;;;;5097969;28;20941;-80
2024/01/18 12:02:10;;;;;;;3.57;3.27;;;17.10;64.50;;;;;;5097899;28;20446;-80
2024/01/18 12:04:38;;;;;;;4.73;3.43;;;15.70;66.60;;;;;;5097680;28;21030;-80
2024/01/18 12:07:06;;;;;;;7.63;4.10;;;15.50;67.70;;;;;;5082298;28;20481;-81
2024/01/18 12:09:34;;;;;;;7.50;4.13;;;16.60;69.40;;;;;;5086789;28;20515;-80
2024/01/18 12:12:02;;;;;;;5.83;4.10;;;18.10;67.50;;;;;;5096521;28;20457;-81
2024/01/18 12:14:29;;;;;;;9.60;3.63;;;19.50;64.20;;;;;;5097857;28;20507;-80
2024/01/18 12:16:58;;;;;;;7.13;3.70;;;20.70;62.40;;;;;;5096509;28;20471;-82
2024/01/18 12:19:35;;;;;;;4.10;3.67;;;21.70;59.40;;;;;;5097353;28;21073;-81
2024/01/18 12:22:06;;;;;;;4.10;3.53;;;22.30;57.50;;;;;;5097928;28;20449;-81
2024/01/18 12:24:33;;;;;;;4.90;2.90;;;22.70;56.40;;;;;;5098970;28;20895;-82
2024/01/18 12:27:03;;;;;;;6.70;2.80;;;22.20;54.10;;;;;;5087150;28;20554;-81
2024/01/18 12:29:31;;;;;;;3.60;3.23;;;21.90;54.60;;;;;;5089806;28;20462;-81
2024/01/18 12:32:00;;;;;;;5.47;2.80;;;21.70;54.50;;;;;;5095885;28;20537;-79
2024/01/18 12:34:29;;;;;;;2.87;2.50;;;21.00;53.00;;;;;;5097666;28;21091;-81
2024/01/18 12:36:56;;;;;;;3.23;2.90;;;19.70;51.60;;;;;;5091617;28;20479;-81
2024/01/18 12:39:24;;;;;;;9.17;2.40;;;18.90;52.80;;;;;;5098967;28;20479;-80